createdAt,value
2023-01-11T00:00:45.579Z,98317.13
2023-01-11T00:03:12.361Z,98311.03
2023-01-11T00:05:42.929Z,98288.28
2023-01-11T00:08:13.068Z,98300.53
2023-01-11T00:10:39.985Z,98277.78
2023-01-11T00:13:07.373Z,98262.91
2023-01-11T00:15:36.153Z,98281.28
2023-01-11T00:18:03.023Z,98266.41
2023-01-11T00:20:29.575Z,98290.09
2023-01-11T00:22:58.949Z,98284.84
2023-01-11T00:25:25.493Z,98250.69
2023-01-11T00:27:52.191Z,98249.91
2023-01-11T00:30:19.043Z,98242.91
2023-01-11T00:32:45.872Z,98249.03
2023-01-11T00:35:12.930Z,98260.41
2023-01-11T00:37:42.265Z,98262.13
2023-01-11T00:40:09.604Z,98230.63
2023-01-11T00:42:54.666Z,98240.28
2023-01-11T00:45:39.598Z,98229.78
2023-01-11T00:48:07.038Z,98242.03
2023-01-11T00:50:35.930Z,98240.28
2023-01-11T00:53:03.421Z,98235.03
2023-01-11T00:55:31.929Z,98214.03
2023-01-11T00:57:59.189Z,98226.28
2023-01-11T01:00:26.440Z,98233.28
2023-01-11T01:02:53.284Z,98228.94
2023-01-11T01:05:20.133Z,98210.56
2023-01-11T01:07:46.707Z,98214.03
2023-01-11T01:10:16.456Z,98220.16
2023-01-11T01:13:03.455Z,98204.44
2023-01-11T01:15:30.208Z,98217.56
2023-01-11T01:17:56.987Z,98192.19
2023-01-11T01:20:24.315Z,98212.34
2023-01-11T01:22:50.887Z,98201.81
2023-01-11T01:25:21.200Z,98208.84
2023-01-11T01:27:47.787Z,98221.97
2023-01-11T01:30:14.437Z,98227.22
2023-01-11T01:32:41.118Z,98213.22
2023-01-11T01:35:08.150Z,98232.47
2023-01-11T01:37:34.641Z,98216.72
2023-01-11T01:40:01.144Z,98179.13
2023-01-11T01:42:27.879Z,98225.53
2023-01-11T01:45:06.188Z,98242.19
2023-01-11T01:47:39.317Z,98229.91
2023-01-11T01:50:23.118Z,98235.19
2023-01-11T01:52:53.012Z,98227.28
2023-01-11T01:55:26.822Z,98225.56
2023-01-11T01:57:55.229Z,98232.56
2023-01-11T02:00:21.950Z,98211.53
2023-01-11T02:02:49.372Z,98231.69
2023-01-11T02:05:17.441Z,98246.56
2023-01-11T02:07:46.234Z,98215.03
2023-01-11T02:10:16.546Z,98220.31
2023-01-11T02:12:55.715Z,98209.78
2023-01-11T02:15:23.103Z,98216.84
2023-01-11T02:17:49.628Z,98228.22
2023-01-11T02:20:30.986Z,98220.34
2023-01-11T02:23:19.715Z,98212.47
2023-01-11T02:26:04.132Z,98206.34
2023-01-11T02:28:33.561Z,98208.16
2023-01-11T02:31:11.615Z,98211.66
2023-01-11T02:34:05.804Z,98197.66
2023-01-11T02:36:44.542Z,98185.38
2023-01-11T02:39:25.009Z,98188.88
2023-01-11T02:42:23.678Z,98181.00
2023-01-11T02:45:02.931Z,98182.75
2023-01-11T02:47:50.642Z,98196.75
2023-01-11T02:50:29.939Z,98181.00
2023-01-11T02:53:27.793Z,98181.00
2023-01-11T02:55:58.811Z,98169.63
2023-01-11T02:58:29.767Z,98153.88
2023-01-11T03:00:58.591Z,98166.16
2023-01-11T03:03:29.466Z,98153.03
2023-01-11T03:06:03.750Z,98146.88
2023-01-11T03:08:44.526Z,98136.38
2023-01-11T03:11:42.853Z,98111.84
2023-01-11T03:14:26.957Z,98096.06
2023-01-11T03:17:22.027Z,98095.22
2023-01-11T03:20:03.949Z,98061.94
2023-01-11T03:23:04.109Z,98068.94
2023-01-11T03:25:40.611Z,98062.81
2023-01-11T03:28:22.128Z,98047.03
2023-01-11T03:31:11.579Z,98078.59
2023-01-11T03:33:41.311Z,98061.94
2023-01-11T03:36:18.764Z,98061.06
2023-01-11T03:38:49.310Z,98049.66
2023-01-11T03:41:21.385Z,98030.38
2023-01-11T03:43:51.836Z,98030.38
2023-01-11T03:46:27.400Z,98047.03
2023-01-11T03:48:59.486Z,98037.41
2023-01-11T03:51:28.410Z,98028.66
2023-01-11T03:53:59.701Z,97955.03
2023-01-11T03:56:38.397Z,98032.16
2023-01-11T03:59:05.122Z,98047.94
2023-01-11T04:01:31.952Z,98042.66
2023-01-11T04:03:58.587Z,98026.03
2023-01-11T04:06:25.729Z,98026.03
2023-01-11T04:08:52.234Z,98040.03
2023-01-11T04:11:18.795Z,98024.25
2023-01-11T04:13:45.231Z,98023.41
2023-01-11T04:16:11.776Z,97996.22
2023-01-11T04:18:38.277Z,97983.94
2023-01-11T04:21:04.986Z,97994.47
2023-01-11T04:23:31.435Z,98010.22
2023-01-11T04:25:57.893Z,98019.88
2023-01-11T04:28:24.331Z,98026.00
2023-01-11T04:30:50.799Z,98014.59
2023-01-11T04:33:18.819Z,98031.28
2023-01-11T04:35:45.579Z,98016.34
2023-01-11T04:38:12.160Z,98016.38
2023-01-11T04:40:38.802Z,98021.63
2023-01-11T04:43:05.258Z,97972.53
2023-01-11T04:45:31.762Z,98007.59
2023-01-11T04:47:58.603Z,98001.47
2023-01-11T04:50:26.395Z,98000.56
2023-01-11T04:52:53.595Z,98008.47
2023-01-11T04:55:20.609Z,98006.72
2023-01-11T04:57:47.382Z,97997.06
2023-01-11T05:00:15.827Z,98009.31
2023-01-11T05:02:42.368Z,98003.19
2023-01-11T05:05:10.633Z,98001.44
2023-01-11T05:07:38.856Z,98006.72
2023-01-11T05:10:06.089Z,98011.09
2023-01-11T05:12:32.637Z,98003.19
2023-01-11T05:14:59.203Z,97970.72
2023-01-11T05:17:25.671Z,98014.59
2023-01-11T05:19:52.172Z,98022.50
2023-01-11T05:22:18.617Z,98011.97
2023-01-11T05:24:45.116Z,98003.19
2023-01-11T05:27:11.665Z,97982.13
2023-01-11T05:29:38.196Z,98000.56
2023-01-11T05:32:05.001Z,98006.69
2023-01-11T05:34:31.491Z,98005.78
2023-01-11T05:36:57.966Z,98007.53
2023-01-11T05:39:24.633Z,98029.47
2023-01-11T05:41:51.103Z,98010.19
2023-01-11T05:44:36.430Z,97974.22
2023-01-11T05:47:04.185Z,97997.84
2023-01-11T05:49:30.836Z,98002.25
2023-01-11T05:51:57.427Z,97995.25
2023-01-11T05:54:23.938Z,97996.09
2023-01-11T05:56:50.410Z,97983.78
2023-01-11T05:59:16.953Z,98002.22
2023-01-11T06:01:44.314Z,98000.47
2023-01-11T06:04:17.204Z,97989.06
2023-01-11T06:06:43.682Z,98008.34
2023-01-11T06:09:10.289Z,98010.09
2023-01-11T06:11:36.763Z,98010.97
2023-01-11T06:14:03.249Z,98021.53
2023-01-11T06:16:29.812Z,98011.84
2023-01-11T06:18:56.314Z,97999.53
2023-01-11T06:21:22.959Z,98013.56
2023-01-11T06:23:53.862Z,97951.22
2023-01-11T06:26:21.971Z,98004.75
2023-01-11T06:28:49.398Z,98012.66
2023-01-11T06:31:17.689Z,98000.34
2023-01-11T06:33:45.348Z,98017.94
2023-01-11T06:36:13.350Z,98002.13
2023-01-11T06:38:40.413Z,98038.13
2023-01-11T06:41:11.238Z,98017.94
2023-01-11T06:43:41.006Z,98029.34
2023-01-11T06:46:13.866Z,98024.94
2023-01-11T06:48:40.437Z,98019.69
2023-01-11T06:51:07.002Z,98010.00
2023-01-11T06:53:33.477Z,98011.78
2023-01-11T06:56:00.079Z,98006.50
2023-01-11T06:58:27.024Z,98001.25
2023-01-11T07:00:55.341Z,97993.31
2023-01-11T07:03:24.121Z,98004.72
2023-01-11T07:05:52.095Z,98005.59
2023-01-11T07:08:19.242Z,98016.09
2023-01-11T07:10:45.785Z,98002.94
2023-01-11T07:13:12.509Z,97989.78
2023-01-11T07:15:39.333Z,98011.72
2023-01-11T07:18:05.931Z,98005.59
2023-01-11T07:20:32.457Z,97994.16
2023-01-11T07:23:00.008Z,98007.31
2023-01-11T07:25:30.151Z,97999.44
2023-01-11T07:28:01.115Z,97998.53
2023-01-11T07:30:30.007Z,98011.69
2023-01-11T07:33:00.814Z,98004.69
2023-01-11T07:35:29.115Z,98009.06
2023-01-11T07:37:55.603Z,98011.72
2023-01-11T07:40:22.266Z,98017.00
2023-01-11T07:43:11.571Z,98025.78
2023-01-11T07:45:45.828Z,98015.25
2023-01-11T07:48:13.141Z,98017.00
2023-01-11T07:50:44.198Z,98007.31
2023-01-11T07:53:11.402Z,98021.34
2023-01-11T07:55:39.648Z,98012.59
2023-01-11T07:58:07.663Z,98022.22
2023-01-11T08:00:37.474Z,98003.78
2023-01-11T08:03:04.176Z,98032.75
2023-01-11T08:05:30.724Z,98025.72
2023-01-11T08:07:57.900Z,98023.97
2023-01-11T08:10:24.446Z,98024.84
2023-01-11T08:13:09.778Z,98027.50
2023-01-11T08:15:36.677Z,98026.59
2023-01-11T08:18:06.678Z,98042.38
2023-01-11T08:20:33.735Z,98021.31
2023-01-11T08:23:05.596Z,98019.56
2023-01-11T08:25:33.193Z,98036.25
2023-01-11T08:28:04.199Z,98033.63
2023-01-11T08:30:30.685Z,98033.63
2023-01-11T08:32:57.747Z,98025.72
2023-01-11T08:35:25.770Z,98030.97
2023-01-11T08:37:52.382Z,98044.16
2023-01-11T08:40:19.089Z,98031.00
2023-01-11T08:42:45.554Z,98051.19
2023-01-11T08:45:13.218Z,98040.63
2023-01-11T08:47:39.714Z,98034.47
2023-01-11T08:50:08.242Z,98038.84
2023-01-11T08:52:37.494Z,98044.09
2023-01-11T08:55:07.621Z,98052.88
2023-01-11T08:57:35.130Z,98041.50
2023-01-11T09:00:01.763Z,98048.53
2023-01-11T09:02:28.276Z,98056.44
2023-01-11T09:04:54.793Z,98042.38
2023-01-11T09:07:21.280Z,98037.06
2023-01-11T09:09:47.756Z,98053.78
2023-01-11T09:12:14.540Z,98054.63
2023-01-11T09:14:41.828Z,98052.00
2023-01-11T09:17:08.408Z,98053.75
2023-01-11T09:19:34.862Z,98055.53
2023-01-11T09:22:03.145Z,98056.38
2023-01-11T09:24:30.206Z,98065.19
2023-01-11T09:27:00.414Z,98082.72
2023-01-11T09:29:26.989Z,98071.31
2023-01-11T09:31:53.575Z,98078.31
2023-01-11T09:34:20.986Z,98068.69
2023-01-11T09:36:49.016Z,98072.19
2023-01-11T09:39:18.765Z,98074.84
2023-01-11T09:42:17.811Z,98081.84
2023-01-11T09:45:05.207Z,98076.56
2023-01-11T09:47:44.491Z,98084.47
2023-01-11T09:50:23.542Z,98082.72
2023-01-11T09:52:54.609Z,98076.56
2023-01-11T09:55:32.902Z,98070.41
2023-01-11T09:58:36.611Z,98075.69
2023-01-11T10:01:19.968Z,98067.75
2023-01-11T10:03:53.142Z,98081.81
2023-01-11T10:06:56.051Z,98081.84
2023-01-11T10:18:39.330Z,98091.50
2023-01-11T10:22:15.682Z,98083.59
2023-01-11T10:25:01.659Z,98087.94
2023-01-11T10:27:39.179Z,98086.16
2023-01-11T10:30:51.606Z,98086.19
2023-01-11T10:33:46.485Z,98080.03
2023-01-11T10:36:39.619Z,98084.44
2023-01-11T10:39:41.833Z,98084.41
2023-01-11T10:42:15.570Z,98095.84
2023-01-11T10:44:52.567Z,98089.69
2023-01-11T10:47:23.769Z,98087.06
2023-01-11T10:50:35.012Z,98084.44
2023-01-11T10:53:07.296Z,98080.03
2023-01-11T10:55:47.136Z,98090.56
2023-01-11T10:59:05.516Z,98073.88
2023-01-11T11:01:40.956Z,98074.75
2023-01-11T11:04:27.781Z,98058.88
2023-01-11T11:07:17.821Z,98060.63
2023-01-11T11:10:02.396Z,98043.94
2023-01-11T11:12:32.594Z,98047.41
2023-01-11T11:15:18.800Z,98043.88
2023-01-11T11:17:52.197Z,98028.91
2023-01-11T11:20:24.544Z,98042.97
2023-01-11T11:22:53.038Z,98040.34
2023-01-11T11:25:29.620Z,98035.94
2023-01-11T11:27:58.333Z,98039.41
2023-01-11T11:30:45.834Z,98032.41
2023-01-11T11:33:38.943Z,98034.13
2023-01-11T11:36:08.851Z,98035.88
2023-01-11T11:38:37.808Z,98035.00
2023-01-11T11:41:06.389Z,98036.75
2023-01-11T11:43:41.369Z,98045.56
2023-01-11T11:46:18.889Z,98057.84
2023-01-11T11:49:15.326Z,98058.72
2023-01-11T11:51:44.088Z,98053.47
2023-01-11T11:54:40.966Z,98049.94
2023-01-11T11:57:21.177Z,98049.97
2023-01-11T11:59:49.759Z,98041.19
2023-01-11T12:02:30.393Z,98048.19
2023-01-11T12:04:59.669Z,98057.00
2023-01-11T12:07:34.416Z,98065.78
2023-01-11T12:10:07.101Z,98064.91
2023-01-11T12:12:36.357Z,98064.91
2023-01-11T12:15:05.780Z,98064.00
2023-01-11T12:17:32.342Z,98048.19
2023-01-11T12:19:58.833Z,98049.97
2023-01-11T12:22:30.680Z,98052.59
2023-01-11T12:25:15.850Z,98050.88
2023-01-11T12:28:11.698Z,98050.88
2023-01-11T12:31:16.982Z,98058.78
2023-01-11T12:34:11.475Z,98058.78
2023-01-11T12:36:44.229Z,98072.84
2023-01-11T12:39:51.910Z,98078.13
2023-01-11T12:42:42.206Z,98071.06
2023-01-11T12:45:40.325Z,98069.31
2023-01-11T12:48:31.555Z,98067.53
2023-01-11T12:51:13.333Z,98067.53
2023-01-11T12:53:55.781Z,98064.00
2023-01-11T12:56:43.942Z,98068.38
2023-01-11T12:59:40.289Z,98074.53
2023-01-11T13:02:15.729Z,98078.06
2023-01-11T13:05:01.433Z,98080.69
2023-01-11T13:07:41.465Z,98086.88
2023-01-11T13:10:23.861Z,98092.13
2023-01-11T13:13:07.226Z,98088.63
2023-01-11T13:15:48.903Z,98102.69
2023-01-11T13:18:27.402Z,98102.69
2023-01-11T13:21:02.524Z,98093.03
2023-01-11T13:23:39.162Z,98100.91
2023-01-11T13:26:20.364Z,98089.50
2023-01-11T13:28:54.804Z,98103.53
2023-01-11T13:31:23.068Z,98094.75
2023-01-11T13:33:57.500Z,98089.44
2023-01-11T13:36:36.400Z,98093.81
2023-01-11T13:39:28.556Z,98096.44
2023-01-11T13:42:05.544Z,98097.31
2023-01-11T13:44:37.315Z,98096.47
2023-01-11T13:47:37.452Z,98102.59
2023-01-11T13:50:12.451Z,98106.06
2023-01-11T13:53:09.700Z,98113.97
2023-01-11T13:56:10.112Z,98122.81
2023-01-11T13:59:12.096Z,98128.09
2023-01-11T14:01:53.755Z,98153.56
2023-01-11T14:04:46.551Z,98150.00
2023-01-11T14:07:44.561Z,98148.25
2023-01-11T14:10:26.253Z,98148.28
2023-01-11T14:13:07.603Z,98157.91
2023-01-11T14:15:52.865Z,98152.63
2023-01-11T14:18:28.527Z,98151.78
2023-01-11T14:21:05.962Z,98152.63
2023-01-11T14:23:55.023Z,98166.75
2023-01-11T14:26:55.322Z,98160.56
2023-01-11T14:29:43.687Z,98176.47
2023-01-11T14:32:28.538Z,98169.41
2023-01-11T14:35:32.783Z,98180.84
2023-01-11T14:38:02.268Z,98184.38
2023-01-11T14:40:44.743Z,98185.25
2023-01-11T14:43:30.069Z,98196.72
2023-01-11T14:46:24.420Z,98213.41
2023-01-11T14:49:06.433Z,98217.81
2023-01-11T14:51:51.477Z,98212.53
2023-01-11T14:54:40.130Z,98221.34
2023-01-11T14:57:06.675Z,98223.09
2023-01-11T14:59:40.317Z,98239.88
2023-01-11T15:02:14.143Z,98242.50
2023-01-11T15:04:53.676Z,98246.88
2023-01-11T15:07:28.983Z,98261.84
2023-01-11T15:09:57.938Z,98251.34
2023-01-11T15:12:39.105Z,98255.72
2023-01-11T15:15:07.664Z,98269.78
2023-01-11T15:17:53.172Z,98278.56
2023-01-11T15:20:21.826Z,98282.97
2023-01-11T15:22:57.800Z,98285.63
2023-01-11T15:25:27.312Z,98285.63
2023-01-11T15:27:55.191Z,98284.75
2023-01-11T15:30:30.841Z,98281.25
2023-01-11T15:33:19.599Z,98282.13
2023-01-11T15:35:55.495Z,98290.94
2023-01-11T15:38:28.112Z,98294.44
2023-01-11T15:41:18.435Z,98294.44
2023-01-11T15:43:59.407Z,98280.41
2023-01-11T15:46:56.170Z,98297.09
2023-01-11T15:49:58.762Z,98303.25
2023-01-11T15:52:52.901Z,98318.22
2023-01-11T15:55:28.640Z,98320.84
2023-01-11T15:57:58.016Z,98318.19
2023-01-11T16:00:40.259Z,98315.56
2023-01-11T16:03:22.300Z,98316.41
2023-01-11T16:06:01.824Z,98324.34
2023-01-11T16:08:37.240Z,98327.88
2023-01-11T16:11:31.725Z,98329.59
2023-01-11T16:14:05.630Z,98333.13
2023-01-11T16:16:40.132Z,98334.91
2023-01-11T16:19:21.672Z,98335.78
2023-01-11T16:21:55.630Z,98342.81
2023-01-11T16:24:26.850Z,98344.56
2023-01-11T16:26:56.679Z,98343.66
2023-01-11T16:29:26.423Z,98343.66
2023-01-11T16:31:56.027Z,98360.34
2023-01-11T16:34:22.807Z,98357.72
2023-01-11T16:36:49.523Z,98364.75
2023-01-11T16:39:29.225Z,98362.13
2023-01-11T16:42:05.881Z,98368.25
2023-01-11T16:44:45.591Z,98371.75
2023-01-11T16:47:18.674Z,98379.69
2023-01-11T16:49:52.190Z,98382.31
2023-01-11T16:52:27.841Z,98381.44
2023-01-11T16:54:56.190Z,98384.06
2023-01-11T16:57:30.178Z,98397.25
2023-01-11T17:00:01.790Z,98384.06
2023-01-11T17:02:38.822Z,98381.41
2023-01-11T17:05:31.741Z,98387.59
2023-01-11T17:07:58.244Z,98384.06
2023-01-11T17:10:31.052Z,98381.41
2023-01-11T17:13:29.393Z,98382.28
2023-01-11T17:16:08.363Z,98373.50
2023-01-11T17:18:38.999Z,98377.03
2023-01-11T17:21:16.930Z,98382.31
2023-01-11T17:23:45.311Z,98384.06
2023-01-11T17:26:22.786Z,98389.31
2023-01-11T17:28:55.886Z,98384.94
2023-01-11T17:31:29.596Z,98375.25
2023-01-11T17:34:08.320Z,98388.44
2023-01-11T17:36:36.114Z,98388.44
2023-01-11T17:39:03.995Z,98384.94
2023-01-11T17:41:49.995Z,98387.53
2023-01-11T17:44:38.084Z,98402.44
2023-01-11T17:47:07.999Z,98409.50
2023-01-11T17:49:36.060Z,98410.38
2023-01-11T17:52:10.851Z,98397.19
2023-01-11T17:54:37.433Z,98408.59
2023-01-11T17:57:03.900Z,98408.59
2023-01-11T17:59:31.439Z,98413.00
2023-01-11T18:02:02.827Z,98420.91
2023-01-11T18:04:30.695Z,98428.78
2023-01-11T18:07:08.196Z,98427.88
2023-01-11T18:09:40.260Z,98419.13
2023-01-11T18:12:31.897Z,98414.72
2023-01-11T18:15:00.867Z,98426.13
2023-01-11T18:17:36.454Z,98430.53
2023-01-11T18:20:22.832Z,98412.97
2023-01-11T18:23:05.065Z,98426.13
2023-01-11T18:25:34.972Z,98412.97
2023-01-11T18:28:26.350Z,98412.97
2023-01-11T18:30:55.075Z,98419.94
2023-01-11T18:33:25.335Z,98416.44
2023-01-11T18:35:54.329Z,98425.22
2023-01-11T18:38:28.779Z,98423.44
2023-01-11T18:40:57.047Z,98406.78
2023-01-11T18:43:29.213Z,98415.56
2023-01-11T18:45:56.185Z,98416.38
2023-01-11T18:48:23.538Z,98420.78
2023-01-11T18:50:52.069Z,98425.16
2023-01-11T18:53:18.696Z,98433.06
2023-01-11T18:55:49.457Z,98433.94
2023-01-11T18:58:16.018Z,98433.94
2023-01-11T19:00:43.048Z,98441.84
2023-01-11T19:03:11.607Z,98441.78
2023-01-11T19:05:44.248Z,98432.13
2023-01-11T19:08:13.684Z,98436.53
2023-01-11T19:10:40.114Z,98437.41
2023-01-11T19:13:06.633Z,98433.88
2023-01-11T19:15:35.821Z,98432.13
2023-01-11T19:18:05.393Z,98445.28
2023-01-11T19:23:03.552Z,98446.13
2023-01-11T19:25:30.001Z,98430.38
2023-01-11T19:27:56.519Z,98428.56
2023-01-11T19:30:22.957Z,98418.06
2023-01-11T19:32:53.441Z,98411.91
2023-01-11T19:35:20.712Z,98406.69
2023-01-11T19:37:47.232Z,98411.94
2023-01-11T19:40:13.784Z,98411.94
2023-01-11T19:42:40.312Z,98399.63
2023-01-11T19:45:07.704Z,98410.16
2023-01-11T19:47:34.282Z,98411.91
2023-01-11T19:50:01.198Z,98411.03
2023-01-11T19:52:27.897Z,98401.38
2023-01-11T19:54:55.168Z,98416.28
2023-01-11T19:57:21.724Z,98424.19
2023-01-11T19:59:49.717Z,98413.66
2023-01-11T20:02:18.763Z,98419.78
2023-01-11T20:04:45.490Z,98413.59
2023-01-11T20:07:13.097Z,98413.59
2023-01-11T20:09:39.817Z,98403.06
2023-01-11T20:12:08.219Z,98420.66
2023-01-11T20:14:35.482Z,98411.88
2023-01-11T20:17:02.463Z,98433.81
2023-01-11T20:19:31.837Z,98404.81
2023-01-11T20:21:58.326Z,98410.97
2023-01-11T20:24:30.726Z,98391.66
2023-01-11T20:27:03.361Z,98401.31
2023-01-11T20:29:30.319Z,98413.59
2023-01-11T20:32:21.134Z,98410.06
2023-01-11T20:34:46.973Z,98405.69
2023-01-11T20:37:14.990Z,98401.25
2023-01-11T20:39:41.521Z,98399.50
2023-01-11T20:42:08.823Z,98403.00
2023-01-11T20:44:35.313Z,98396.88
2023-01-11T20:47:01.874Z,98391.66
2023-01-11T20:49:29.246Z,98388.16
2023-01-11T20:51:57.130Z,98376.75
2023-01-11T20:54:23.625Z,98380.22
2023-01-11T20:56:50.151Z,98383.72
2023-01-11T20:59:19.914Z,98370.56
2023-01-11T21:01:47.692Z,98364.47
2023-01-11T21:04:14.655Z,98354.78
2023-01-11T21:06:43.441Z,98363.56
2023-01-11T21:09:10.761Z,98346.00
2023-01-11T21:14:04.900Z,98358.28
2023-01-11T21:16:31.791Z,98344.25
2023-01-11T21:19:01.526Z,98334.63
2023-01-11T21:21:30.335Z,98339.00
2023-01-11T21:24:02.115Z,98339.88
2023-01-11T21:26:29.563Z,98332.81
2023-01-11T21:29:01.381Z,98332.81
2023-01-11T21:31:30.742Z,98324.94
2023-01-11T21:34:02.911Z,98328.41
2023-01-11T21:36:32.993Z,98334.50
2023-01-11T21:39:00.180Z,98318.72
2023-01-11T21:41:48.301Z,98324.88
2023-01-11T21:44:15.860Z,98323.13
2023-01-11T21:46:43.114Z,98307.34
2023-01-11T21:49:10.672Z,98315.22
2023-01-11T21:51:37.342Z,98306.50
2023-01-11T21:54:12.502Z,98312.63
2023-01-11T21:56:39.292Z,98319.66
2023-01-11T21:59:05.777Z,98301.25
2023-01-11T22:01:32.236Z,98309.13
2023-01-11T22:03:59.594Z,98317.03
2023-01-11T22:06:26.104Z,98316.16
2023-01-11T22:08:52.890Z,98319.66
2023-01-11T22:11:19.398Z,98327.50
2023-01-11T22:13:45.945Z,98336.25
2023-01-11T22:16:15.862Z,98348.53
2023-01-11T22:18:43.377Z,98346.78
2023-01-11T22:21:18.753Z,98338.00
2023-01-11T22:23:47.548Z,98337.13
2023-01-11T22:26:18.142Z,98345.03
2023-01-11T22:29:04.990Z,98327.50
2023-01-11T22:31:32.733Z,98309.97
2023-01-11T22:34:00.580Z,98308.22
2023-01-11T22:36:31.019Z,98304.69
2023-01-11T22:39:01.053Z,98308.22
2023-01-11T22:41:27.556Z,98303.84
2023-01-11T22:43:55.299Z,98295.94
2023-01-11T22:46:23.998Z,98309.97
2023-01-11T22:48:51.195Z,98295.13
2023-01-11T22:51:19.996Z,98284.59
2023-01-11T22:53:49.367Z,98300.31
2023-01-11T22:56:20.790Z,98303.84
2023-01-11T22:58:47.922Z,98293.31
2023-01-11T23:01:29.131Z,98291.56
2023-01-11T23:03:59.875Z,98284.59
2023-01-11T23:06:44.316Z,98281.09
2023-01-11T23:09:16.833Z,98287.22
2023-01-11T23:12:03.462Z,98289.00
2023-01-11T23:14:34.604Z,98262.69
2023-01-11T23:17:13.173Z,98276.72
2023-01-11T23:19:47.136Z,98271.44
2023-01-11T23:22:15.693Z,98252.16
2023-01-11T23:24:42.231Z,98250.41
2023-01-11T23:27:08.731Z,98238.16
2023-01-11T23:29:35.657Z,98259.22
2023-01-11T23:32:02.193Z,98217.13
2023-01-11T23:34:28.836Z,98221.53
2023-01-11T23:36:58.539Z,98234.72
2023-01-11T23:39:25.062Z,98221.53
2023-01-11T23:42:09.897Z,98215.38
2023-01-11T23:44:36.408Z,98200.47
2023-01-11T23:47:21.050Z,98189.09
2023-01-11T23:49:49.513Z,98181.22
2023-01-11T23:52:17.249Z,98215.41
2023-01-11T23:54:45.559Z,98189.09
2023-01-11T23:57:14.024Z,98197.88
2023-01-11T23:59:42.672Z,98184.72
